Malta Bend, Missouri
Current Conditions -  °F | °C
As of 7:58 PM on Sunday 21 Dec 2014 (Local Time) from KSZL Reporting Station
Overcast Overcast  
Wind Chill:   Ceiling: 4500
Heat Index:   Visibility: 10mi
Dew Point:   Wind: 14mph
Humidity: 82%   Direction: 170°S
Pressure: 29.84"   Gusts: NA
Location:  39.19°N, 93.36°W
Report Text: KSZL 220158Z AUTO 17012KT 10SM OVC045 06/03 A2984 RMK AO2 SLP112 T00590031 $
Loading
Personal Weather Stations






























Interactive Weather Map New forecast layout! Learn more

10-Day Weather Forecast

Advertisements
Track Severe Weather on mobile